Tropical Cyclones
[Index]
Main Index Home Page Stock Weather Photos Extreme Storms Discussion Storm News and Storm Chasing Reports Tropical Cyclones / Hurricanes / Typhoons Weather Data and Links Wild Fires / Bushfires Weather Observation Techniques Weather Picture Catalogue Tornado Pictures and Reports Stock Video Footage and DVDs for sale
Season 1993-1994 Tropical Cyclone MARIOLA Track Map
Season 1993-1994 Summaries: [BoM-AU] [JTWC-AU] [JTWC-SIO] [JTWC-SPAC] [JTWC-SH]
<<- Previous TC | JTWC 1993-1994 Season | Next TC ->>

click for intensity scale information  Lat/long Grid: Show Hide

 Date Labels: Show Hide

Joint Typhoon Warning Centre Cyclone Data

Name: MARIOLA

07 Mar 1994 12:00 UTC to 18 Mar 1994 00:00 UTC

    date/time    lat    long     hPa   cat  kts
1994-03-07 12   14.0   108.6                  20          
1994-03-07 18   14.1   107.7                  20          
1994-03-08 00   14.3   106.7                  20          
1994-03-08 06   14.5   105.6                  25          
1994-03-08 12   14.7   104.5                  25          
1994-03-08 18   14.8   103.3                  25          
1994-03-09 00   14.9   102.0                  25          
1994-03-09 06   15.0   100.6                  30          
1994-03-09 12   15.1    99.0                  30          
1994-03-09 18   15.1    97.5                  30          
1994-03-10 00   15.1    96.0                  30          
1994-03-10 06   15.0    94.5                  30          
1994-03-10 12   15.0    93.0                  35          
1994-03-10 18   15.0    91.5                  35          
1994-03-11 00   15.0    90.0                  35          
1994-03-11 06   15.1    88.6            1     40          
1994-03-11 12   15.1    87.3            2     60          
1994-03-11 18   15.1    86.0            3     80          
1994-03-12 00   15.1    84.8            3     80          
1994-03-12 06   15.1    83.7            3     80          
1994-03-12 12   15.1    82.7            3     90          
1994-03-12 18   15.3    81.8            3     90          
1994-03-13 00   15.4    80.9            3     85          
1994-03-13 06   15.5    80.1            3     80          
1994-03-13 12   15.6    79.3            3     75          
1994-03-13 18   15.8    78.4            3     75          
1994-03-14 00   16.0    77.4            2     70          
1994-03-14 06   16.2    76.4            2     65          
1994-03-14 12   16.3    75.5            2     60          
1994-03-14 18   16.3    74.6            2     55          
1994-03-15 00   16.2    73.7            2     55          
1994-03-15 06   15.8    72.8            1     50          
1994-03-15 12   15.4    71.7            1     50          
1994-03-15 18   15.1    70.6            1     50          
1994-03-16 00   15.0    69.5            1     50          
1994-03-16 06   15.0    68.3            1     45          
1994-03-16 12   15.0    67.1            1     45          
1994-03-16 18   15.0    66.0            1     40          
1994-03-17 00   15.2    64.9            1     40          
1994-03-17 06   15.3    63.9                  35          
1994-03-17 12   15.5    62.9                  35          
1994-03-17 18   15.8    61.8                  30          
1994-03-18 00   16.1    60.6                  30          
Winds are 1-min average.

Tropical cyclone tracks developed by Michael Bath using data from the Joint Typhoon Warning Centre Best Tracks and Google Maps.


[Australian Severe Weather index] [Copyright Notice] [Email Contacts] [Search This Site] [Privacy Policy]
Document: tropical_cyclone_mariola.htm Updated: 18 September 2016